sensor_id;sensor_type;location;lat;lon;timestamp;P1;durP1;ratioP1;P2;durP2;ratioP2
13404;SDS011;6773;51.192;7.024;2022-08-21T00:01:57;5.40;;;3.15;;
13404;SDS011;6773;51.192;7.024;2022-08-21T00:04:23;4.93;;;2.75;;
13404;SDS011;6773;51.192;7.024;2022-08-21T00:06:50;4.68;;;2.60;;
13404;SDS011;6773;51.192;7.024;2022-08-21T00:09:16;5.38;;;2.60;;
13404;SDS011;6773;51.192;7.024;2022-08-21T00:11:42;5.22;;;2.88;;
13404;SDS011;6773;51.192;7.024;2022-08-21T00:14:09;3.97;;;2.58;;
13404;SDS011;6773;51.192;7.024;2022-08-21T00:16:35;4.97;;;2.60;;
13404;SDS011;6773;51.192;7.024;2022-08-21T00:19:02;5.25;;;3.00;;
13404;SDS011;6773;51.192;7.024;2022-08-21T00:21:28;3.90;;;2.38;;
13404;SDS011;6773;51.192;7.024;2022-08-21T00:23:54;5.18;;;2.67;;
13404;SDS011;6773;51.192;7.024;2022-08-21T00:26:19;4.38;;;2.20;;
13404;SDS011;6773;51.192;7.024;2022-08-21T00:28:45;5.75;;;2.38;;
13404;SDS011;6773;51.192;7.024;2022-08-21T00:31:13;4.32;;;2.40;;
13404;SDS011;6773;51.192;7.024;2022-08-21T00:33:40;5.22;;;2.42;;
13404;SDS011;6773;51.192;7.024;2022-08-21T00:36:06;7.93;;;2.60;;
13404;SDS011;6773;51.192;7.024;2022-08-21T00:38:32;6.00;;;2.45;;
13404;SDS011;6773;51.192;7.024;2022-08-21T00:40:59;4.78;;;2.47;;
13404;SDS011;6773;51.192;7.024;2022-08-21T00:43:29;5.32;;;2.63;;
13404;SDS011;6773;51.192;7.024;2022-08-21T00:45:57;6.45;;;2.45;;
13404;SDS011;6773;51.192;7.024;2022-08-21T00:48:23;4.85;;;2.30;;
13404;SDS011;6773;51.192;7.024;2022-08-21T00:50:54;4.90;;;2.40;;
13404;SDS011;6773;51.192;7.024;2022-08-21T00:53:23;5.13;;;2.80;;
13404;SDS011;6773;51.192;7.024;2022-08-21T00:55:50;5.97;;;2.85;;
13404;SDS011;6773;51.192;7.024;2022-08-21T00:58:16;4.45;;;2.60;;
13404;SDS011;6773;51.192;7.024;2022-08-21T01:00:43;4.60;;;2.70;;
13404;SDS011;6773;51.192;7.024;2022-08-21T01:03:13;3.20;;;2.25;;
13404;SDS011;6773;51.192;7.024;2022-08-21T01:05:41;5.55;;;2.65;;
13404;SDS011;6773;51.192;7.024;2022-08-21T01:08:07;5.28;;;2.92;;
13404;SDS011;6773;51.192;7.024;2022-08-21T01:10:34;3.33;;;2.30;;
13404;SDS011;6773;51.192;7.024;2022-08-21T01:13:03;5.68;;;2.50;;
13404;SDS011;6773;51.192;7.024;2022-08-21T01:15:32;6.13;;;2.50;;
13404;SDS011;6773;51.192;7.024;2022-08-21T01:18:00;6.22;;;2.47;;
13404;SDS011;6773;51.192;7.024;2022-08-21T01:20:28;4.80;;;2.33;;
13404;SDS011;6773;51.192;7.024;2022-08-21T01:22:53;4.90;;;2.30;;
13404;SDS011;6773;51.192;7.024;2022-08-21T01:25:19;4.65;;;2.58;;
13404;SDS011;6773;51.192;7.024;2022-08-21T01:27:45;7.47;;;2.70;;
13404;SDS011;6773;51.192;7.024;2022-08-21T01:30:12;5.13;;;2.97;;
13404;SDS011;6773;51.192;7.024;2022-08-21T01:32:41;4.40;;;2.30;;
13404;SDS011;6773;51.192;7.024;2022-08-21T01:35:07;3.80;;;2.60;;
13404;SDS011;6773;51.192;7.024;2022-08-21T01:37:34;6.03;;;3.38;;
13404;SDS011;6773;51.192;7.024;2022-08-21T01:39:59;4.53;;;2.50;;
13404;SDS011;6773;51.192;7.024;2022-08-21T01:42:25;3.78;;;2.70;;
13404;SDS011;6773;51.192;7.024;2022-08-21T01:44:51;4.75;;;2.78;;
13404;SDS011;6773;51.192;7.024;2022-08-21T01:47:17;6.80;;;2.80;;
13404;SDS011;6773;51.192;7.024;2022-08-21T01:49:43;4.95;;;2.40;;
13404;SDS011;6773;51.192;7.024;2022-08-21T01:52:09;4.18;;;2.50;;
13404;SDS011;6773;51.192;7.024;2022-08-21T01:54:36;5.63;;;2.60;;
13404;SDS011;6773;51.192;7.024;2022-08-21T01:57:02;6.53;;;3.72;;
13404;SDS011;6773;51.192;7.024;2022-08-21T01:59:30;11.05;;;4.65;;
13404;SDS011;6773;51.192;7.024;2022-08-21T02:01:56;9.20;;;3.80;;
13404;SDS011;6773;51.192;7.024;2022-08-21T02:04:22;7.78;;;4.20;;
13404;SDS011;6773;51.192;7.024;2022-08-21T02:06:48;8.65;;;4.00;;
13404;SDS011;6773;51.192;7.024;2022-08-21T02:09:14;7.75;;;4.40;;
13404;SDS011;6773;51.192;7.024;2022-08-21T02:11:42;7.15;;;3.92;;
13404;SDS011;6773;51.192;7.024;2022-08-21T02:14:08;7.35;;;4.35;;
13404;SDS011;6773;51.192;7.024;2022-08-21T02:16:36;7.72;;;4.70;;
13404;SDS011;6773;51.192;7.024;2022-08-21T02:19:03;11.00;;;4.50;;
13404;SDS011;6773;51.192;7.024;2022-08-21T02:21:29;10.57;;;5.20;;
13404;SDS011;6773;51.192;7.024;2022-08-21T02:23:54;9.55;;;4.90;;
13404;SDS011;6773;51.192;7.024;2022-08-21T02:26:20;6.60;;;5.40;;
13404;SDS011;6773;51.192;7.024;2022-08-21T02:28:46;9.30;;;5.30;;
13404;SDS011;6773;51.192;7.024;2022-08-21T02:31:11;8.83;;;5.67;;
13404;SDS011;6773;51.192;7.024;2022-08-21T02:33:37;11.17;;;5.77;;
13404;SDS011;6773;51.192;7.024;2022-08-21T02:36:04;10.50;;;5.50;;
13404;SDS011;6773;51.192;7.024;2022-08-21T02:38:32;7.90;;;5.60;;
13404;SDS011;6773;51.192;7.024;2022-08-21T02:41:02;13.50;;;5.97;;
13404;SDS011;6773;51.192;7.024;2022-08-21T02:43:28;11.13;;;5.40;;
13404;SDS011;6773;51.192;7.024;2022-08-21T02:45:55;9.47;;;5.37;;
13404;SDS011;6773;51.192;7.024;2022-08-21T02:48:23;10.03;;;5.40;;
13404;SDS011;6773;51.192;7.024;2022-08-21T02:50:52;6.47;;;5.00;;
13404;SDS011;6773;51.192;7.024;2022-08-21T02:53:20;7.13;;;5.20;;
13404;SDS011;6773;51.192;7.024;2022-08-21T02:55:47;7.50;;;4.80;;
13404;SDS011;6773;51.192;7.024;2022-08-21T02:58:15;8.70;;;5.47;;
13404;SDS011;6773;51.192;7.024;2022-08-21T03:00:48;5.80;;;4.80;;
13404;SDS011;6773;51.192;7.024;2022-08-21T03:03:15;9.83;;;5.50;;
13404;SDS011;6773;51.192;7.024;2022-08-21T03:05:41;8.33;;;5.63;;
13404;SDS011;6773;51.192;7.024;2022-08-21T03:08:09;6.77;;;4.80;;
13404;SDS011;6773;51.192;7.024;2022-08-21T03:10:39;10.50;;;5.50;;
13404;SDS011;6773;51.192;7.024;2022-08-21T03:13:08;8.97;;;5.97;;
13404;SDS011;6773;51.192;7.024;2022-08-21T03:15:34;10.60;;;5.60;;
13404;SDS011;6773;51.192;7.024;2022-08-21T03:18:00;12.87;;;6.50;;
13404;SDS011;6773;51.192;7.024;2022-08-21T03:20:27;10.57;;;6.57;;
13404;SDS011;6773;51.192;7.024;2022-08-21T03:22:54;11.20;;;6.77;;
13404;SDS011;6773;51.192;7.024;2022-08-21T03:25:23;9.87;;;6.23;;
13404;SDS011;6773;51.192;7.024;2022-08-21T03:27:49;8.97;;;6.37;;
13404;SDS011;6773;51.192;7.024;2022-08-21T03:30:15;11.30;;;7.00;;
13404;SDS011;6773;51.192;7.024;2022-08-21T03:32:42;10.63;;;8.50;;
13404;SDS011;6773;51.192;7.024;2022-08-21T03:35:08;10.17;;;6.87;;
13404;SDS011;6773;51.192;7.024;2022-08-21T03:37:34;12.23;;;8.60;;
13404;SDS011;6773;51.192;7.024;2022-08-21T03:40:00;11.13;;;8.13;;
13404;SDS011;6773;51.192;7.024;2022-08-21T03:42:28;10.93;;;7.47;;
13404;SDS011;6773;51.192;7.024;2022-08-21T03:44:54;11.83;;;7.30;;
13404;SDS011;6773;51.192;7.024;2022-08-21T03:47:20;11.77;;;7.80;;
13404;SDS011;6773;51.192;7.024;2022-08-21T03:49:47;12.30;;;8.00;;
13404;SDS011;6773;51.192;7.024;2022-08-21T03:52:13;11.23;;;8.33;;
13404;SDS011;6773;51.192;7.024;2022-08-21T03:54:38;10.77;;;8.13;;
13404;SDS011;6773;51.192;7.024;2022-08-21T03:57:05;13.00;;;8.87;;
13404;SDS011;6773;51.192;7.024;2022-08-21T03:59:31;12.83;;;9.23;;
13404;SDS011;6773;51.192;7.024;2022-08-21T04:01:58;11.80;;;8.27;;
13404;SDS011;6773;51.192;7.024;2022-08-21T04:04:27;10.73;;;8.47;;
13404;SDS011;6773;51.192;7.024;2022-08-21T04:06:53;11.63;;;8.80;;
13404;SDS011;6773;51.192;7.024;2022-08-21T04:09:20;11.37;;;9.07;;
13404;SDS011;6773;51.192;7.024;2022-08-21T04:11:46;16.20;;;9.73;;
13404;SDS011;6773;51.192;7.024;2022-08-21T04:14:13;13.43;;;10.33;;
13404;SDS011;6773;51.192;7.024;2022-08-21T04:16:39;14.80;;;10.07;;
13404;SDS011;6773;51.192;7.024;2022-08-21T04:19:06;19.03;;;11.60;;
13404;SDS011;6773;51.192;7.024;2022-08-21T04:21:32;17.57;;;10.63;;
13404;SDS011;6773;51.192;7.024;2022-08-21T04:23:58;16.83;;;10.90;;
13404;SDS011;6773;51.192;7.024;2022-08-21T04:26:24;15.97;;;11.20;;
13404;SDS011;6773;51.192;7.024;2022-08-21T04:28:51;15.60;;;11.27;;
13404;SDS011;6773;51.192;7.024;2022-08-21T04:31:17;16.73;;;11.00;;
13404;SDS011;6773;51.192;7.024;2022-08-21T04:33:43;16.97;;;12.27;;
13404;SDS011;6773;51.192;7.024;2022-08-21T04:36:09;15.50;;;12.23;;
13404;SDS011;6773;51.192;7.024;2022-08-21T04:38:36;19.57;;;12.60;;
13404;SDS011;6773;51.192;7.024;2022-08-21T04:41:02;17.03;;;12.47;;
13404;SDS011;6773;51.192;7.024;2022-08-21T04:43:29;16.07;;;13.03;;
13404;SDS011;6773;51.192;7.024;2022-08-21T04:45:55;20.10;;;12.67;;
13404;SDS011;6773;51.192;7.024;2022-08-21T04:48:22;16.83;;;12.90;;
13404;SDS011;6773;51.192;7.024;2022-08-21T04:50:56;19.90;;;13.07;;
13404;SDS011;6773;51.192;7.024;2022-08-21T04:56:00;20.43;;;14.30;;
13404;SDS011;6773;51.192;7.024;2022-08-21T04:58:32;22.33;;;14.17;;
13404;SDS011;6773;51.192;7.024;2022-08-21T05:00:58;20.63;;;12.67;;
13404;SDS011;6773;51.192;7.024;2022-08-21T05:03:24;23.07;;;14.43;;
13404;SDS011;6773;51.192;7.024;2022-08-21T05:05:50;18.53;;;14.00;;
13404;SDS011;6773;51.192;7.024;2022-08-21T05:08:17;14.97;;;12.70;;
13404;SDS011;6773;51.192;7.024;2022-08-21T05:10:46;19.77;;;14.80;;
13404;SDS011;6773;51.192;7.024;2022-08-21T05:13:12;22.13;;;14.23;;
13404;SDS011;6773;51.192;7.024;2022-08-21T05:15:39;21.93;;;15.37;;
13404;SDS011;6773;51.192;7.024;2022-08-21T05:18:05;20.53;;;15.70;;
13404;SDS011;6773;51.192;7.024;2022-08-21T05:20:31;26.20;;;16.50;;
13404;SDS011;6773;51.192;7.024;2022-08-21T05:22:59;26.37;;;15.97;;
13404;SDS011;6773;51.192;7.024;2022-08-21T05:25:26;20.13;;;15.37;;
13404;SDS011;6773;51.192;7.024;2022-08-21T05:27:52;20.67;;;15.87;;
13404;SDS011;6773;51.192;7.024;2022-08-21T05:30:18;18.43;;;15.03;;
13404;SDS011;6773;51.192;7.024;2022-08-21T05:32:45;22.93;;;15.30;;
13404;SDS011;6773;51.192;7.024;2022-08-21T05:35:12;20.90;;;15.00;;
13404;SDS011;6773;51.192;7.024;2022-08-21T05:37:38;22.83;;;14.70;;
13404;SDS011;6773;51.192;7.024;2022-08-21T05:40:05;17.83;;;13.63;;
13404;SDS011;6773;51.192;7.024;2022-08-21T05:42:32;24.53;;;13.67;;
13404;SDS011;6773;51.192;7.024;2022-08-21T05:44:58;15.07;;;13.07;;
13404;SDS011;6773;51.192;7.024;2022-08-21T05:47:24;23.27;;;13.70;;
13404;SDS011;6773;51.192;7.024;2022-08-21T05:49:50;18.40;;;12.20;;
13404;SDS011;6773;51.192;7.024;2022-08-21T05:52:19;24.77;;;13.87;;
13404;SDS011;6773;51.192;7.024;2022-08-21T05:54:46;18.93;;;12.90;;
13404;SDS011;6773;51.192;7.024;2022-08-21T05:57:11;17.73;;;12.17;;
13404;SDS011;6773;51.192;7.024;2022-08-21T05:59:37;16.77;;;12.20;;
13404;SDS011;6773;51.192;7.024;2022-08-21T06:02:03;20.17;;;11.67;;
13404;SDS011;6773;51.192;7.024;2022-08-21T06:04:29;16.50;;;11.23;;
13404;SDS011;6773;51.192;7.024;2022-08-21T06:06:54;16.53;;;11.40;;
13404;SDS011;6773;51.192;7.024;2022-08-21T06:09:20;19.45;;;11.50;;
13404;SDS011;6773;51.192;7.024;2022-08-21T06:11:46;17.23;;;12.97;;
13404;SDS011;6773;51.192;7.024;2022-08-21T06:14:13;17.30;;;12.25;;
13404;SDS011;6773;51.192;7.024;2022-08-21T06:16:39;19.63;;;12.50;;
13404;SDS011;6773;51.192;7.024;2022-08-21T06:19:05;15.57;;;11.87;;
13404;SDS011;6773;51.192;7.024;2022-08-21T06:21:31;19.45;;;11.40;;
13404;SDS011;6773;51.192;7.024;2022-08-21T06:23:57;15.68;;;11.65;;
13404;SDS011;6773;51.192;7.024;2022-08-21T06:26:22;16.48;;;12.00;;
13404;SDS011;6773;51.192;7.024;2022-08-21T06:28:48;19.60;;;12.10;;
13404;SDS011;6773;51.192;7.024;2022-08-21T06:31:20;17.83;;;11.73;;
13404;SDS011;6773;51.192;7.024;2022-08-21T06:33:47;16.03;;;11.77;;
13404;SDS011;6773;51.192;7.024;2022-08-21T06:36:13;17.35;;;11.60;;
13404;SDS011;6773;51.192;7.024;2022-08-21T06:38:39;15.57;;;11.13;;
13404;SDS011;6773;51.192;7.024;2022-08-21T06:41:06;16.00;;;10.15;;
13404;SDS011;6773;51.192;7.024;2022-08-21T06:43:32;14.15;;;10.73;;
13404;SDS011;6773;51.192;7.024;2022-08-21T06:45:58;13.70;;;9.63;;
13404;SDS011;6773;51.192;7.024;2022-08-21T06:48:24;15.57;;;10.05;;
13404;SDS011;6773;51.192;7.024;2022-08-21T06:50:49;13.52;;;10.07;;
13404;SDS011;6773;51.192;7.024;2022-08-21T06:53:17;16.05;;;10.38;;
13404;SDS011;6773;51.192;7.024;2022-08-21T06:55:44;11.05;;;9.48;;
13404;SDS011;6773;51.192;7.024;2022-08-21T06:58:10;13.00;;;9.35;;
13404;SDS011;6773;51.192;7.024;2022-08-21T07:00:55;12.73;;;8.90;;
13404;SDS011;6773;51.192;7.024;2022-08-21T07:03:22;14.98;;;8.65;;
13404;SDS011;6773;51.192;7.024;2022-08-21T07:05:50;14.15;;;8.27;;
13404;SDS011;6773;51.192;7.024;2022-08-21T07:08:17;16.20;;;8.52;;
13404;SDS011;6773;51.192;7.024;2022-08-21T07:10:43;13.02;;;7.53;;
13404;SDS011;6773;51.192;7.024;2022-08-21T07:13:09;10.85;;;7.43;;
13404;SDS011;6773;51.192;7.024;2022-08-21T07:15:34;10.00;;;6.63;;
13404;SDS011;6773;51.192;7.024;2022-08-21T07:18:00;12.80;;;6.45;;
13404;SDS011;6773;51.192;7.024;2022-08-21T07:20:27;12.25;;;6.43;;
13404;SDS011;6773;51.192;7.024;2022-08-21T07:22:53;10.63;;;6.28;;
13404;SDS011;6773;51.192;7.024;2022-08-21T07:25:21;9.00;;;5.88;;
13404;SDS011;6773;51.192;7.024;2022-08-21T07:27:47;10.13;;;6.00;;
13404;SDS011;6773;51.192;7.024;2022-08-21T07:30:12;8.63;;;5.50;;
13404;SDS011;6773;51.192;7.024;2022-08-21T07:32:38;11.80;;;6.60;;
13404;SDS011;6773;51.192;7.024;2022-08-21T07:35:04;10.75;;;6.30;;
13404;SDS011;6773;51.192;7.024;2022-08-21T07:37:30;8.50;;;5.63;;
13404;SDS011;6773;51.192;7.024;2022-08-21T07:39:55;9.70;;;6.30;;
13404;SDS011;6773;51.192;7.024;2022-08-21T07:42:21;8.90;;;6.22;;
13404;SDS011;6773;51.192;7.024;2022-08-21T07:44:47;9.00;;;5.47;;
13404;SDS011;6773;51.192;7.024;2022-08-21T07:47:13;11.93;;;5.50;;
13404;SDS011;6773;51.192;7.024;2022-08-21T07:49:39;7.35;;;5.70;;
13404;SDS011;6773;51.192;7.024;2022-08-21T07:52:04;10.20;;;5.80;;
13404;SDS011;6773;51.192;7.024;2022-08-21T07:54:30;10.05;;;6.13;;
13404;SDS011;6773;51.192;7.024;2022-08-21T07:56:56;9.65;;;5.10;;
13404;SDS011;6773;51.192;7.024;2022-08-21T07:59:22;12.80;;;5.72;;
13404;SDS011;6773;51.192;7.024;2022-08-21T08:01:48;10.07;;;5.38;;
13404;SDS011;6773;51.192;7.024;2022-08-21T08:04:13;9.82;;;5.35;;
13404;SDS011;6773;51.192;7.024;2022-08-21T08:06:40;10.27;;;5.57;;
13404;SDS011;6773;51.192;7.024;2022-08-21T08:09:06;10.52;;;5.60;;
13404;SDS011;6773;51.192;7.024;2022-08-21T08:11:32;8.77;;;5.43;;
13404;SDS011;6773;51.192;7.024;2022-08-21T08:13:58;7.80;;;4.57;;
13404;SDS011;6773;51.192;7.024;2022-08-21T08:16:24;11.55;;;4.70;;
13404;SDS011;6773;51.192;7.024;2022-08-21T08:18:50;10.00;;;4.43;;
13404;SDS011;6773;51.192;7.024;2022-08-21T08:21:16;7.45;;;4.65;;
13404;SDS011;6773;51.192;7.024;2022-08-21T08:23:45;7.55;;;5.05;;
13404;SDS011;6773;51.192;7.024;2022-08-21T08:26:10;10.05;;;4.82;;
13404;SDS011;6773;51.192;7.024;2022-08-21T08:28:36;8.00;;;4.63;;
13404;SDS011;6773;51.192;7.024;2022-08-21T08:31:02;8.48;;;4.50;;
13404;SDS011;6773;51.192;7.024;2022-08-21T08:33:28;11.52;;;5.72;;
13404;SDS011;6773;51.192;7.024;2022-08-21T08:35:54;8.00;;;4.57;;
13404;SDS011;6773;51.192;7.024;2022-08-21T08:38:20;8.30;;;4.93;;
13404;SDS011;6773;51.192;7.024;2022-08-21T08:43:38;7.13;;;4.95;;
13404;SDS011;6773;51.192;7.024;2022-08-21T08:46:06;7.90;;;4.60;;
13404;SDS011;6773;51.192;7.024;2022-08-21T08:48:53;10.90;;;4.32;;
13404;SDS011;6773;51.192;7.024;2022-08-21T08:51:25;6.70;;;3.50;;
13404;SDS011;6773;51.192;7.024;2022-08-21T08:54:09;7.07;;;3.45;;
13404;SDS011;6773;51.192;7.024;2022-08-21T08:56:42;4.43;;;2.63;;
13404;SDS011;6773;51.192;7.024;2022-08-21T08:59:19;6.63;;;2.42;;
13404;SDS011;6773;51.192;7.024;2022-08-21T09:01:51;7.80;;;2.97;;
13404;SDS011;6773;51.192;7.024;2022-08-21T09:04:22;7.57;;;2.85;;
13404;SDS011;6773;51.192;7.024;2022-08-21T09:07:12;4.55;;;2.55;;
13404;SDS011;6773;51.192;7.024;2022-08-21T09:10:20;5.95;;;2.28;;
13404;SDS011;6773;51.192;7.024;2022-08-21T09:13:03;8.15;;;2.85;;
13404;SDS011;6773;51.192;7.024;2022-08-21T09:15:32;4.50;;;3.08;;
13404;SDS011;6773;51.192;7.024;2022-08-21T09:21:24;7.18;;;2.90;;
13404;SDS011;6773;51.192;7.024;2022-08-21T09:29:20;10.80;;;3.55;;
13404;SDS011;6773;51.192;7.024;2022-08-21T09:31:49;4.63;;;2.05;;
13404;SDS011;6773;51.192;7.024;2022-08-21T09:34:23;6.25;;;2.75;;
13404;SDS011;6773;51.192;7.024;2022-08-21T09:36:51;5.57;;;2.05;;
13404;SDS011;6773;51.192;7.024;2022-08-21T09:39:28;5.50;;;2.58;;
13404;SDS011;6773;51.192;7.024;2022-08-21T09:41:59;6.40;;;2.15;;
13404;SDS011;6773;51.192;7.024;2022-08-21T09:44:30;5.20;;;2.63;;
13404;SDS011;6773;51.192;7.024;2022-08-21T09:46:58;8.35;;;2.50;;
13404;SDS011;6773;51.192;7.024;2022-08-21T09:49:32;8.73;;;2.40;;
13404;SDS011;6773;51.192;7.024;2022-08-21T09:52:00;5.78;;;2.20;;
13404;SDS011;6773;51.192;7.024;2022-08-21T09:54:31;5.60;;;2.20;;
13404;SDS011;6773;51.192;7.024;2022-08-21T09:57:11;6.13;;;2.45;;
13404;SDS011;6773;51.192;7.024;2022-08-21T10:00:07;6.60;;;2.58;;
13404;SDS011;6773;51.192;7.024;2022-08-21T10:02:51;5.82;;;2.15;;
13404;SDS011;6773;51.192;7.024;2022-08-21T10:07:48;5.32;;;2.40;;
13404;SDS011;6773;51.192;7.024;2022-08-21T10:10:18;4.53;;;2.40;;
13404;SDS011;6773;51.192;7.024;2022-08-21T10:16:05;5.95;;;2.40;;
13404;SDS011;6773;51.192;7.024;2022-08-21T10:24:25;4.25;;;2.10;;
13404;SDS011;6773;51.192;7.024;2022-08-21T10:32:53;1.65;;;1.40;;
13404;SDS011;6773;51.192;7.024;2022-08-21T10:35:33;5.80;;;2.08;;
13404;SDS011;6773;51.192;7.024;2022-08-21T10:59:07;3.35;;;1.90;;
13404;SDS011;6773;51.192;7.024;2022-08-21T11:02:25;5.03;;;2.10;;
13404;SDS011;6773;51.192;7.024;2022-08-21T11:05:15;4.68;;;2.00;;
13404;SDS011;6773;51.192;7.024;2022-08-21T11:08:01;3.60;;;1.90;;
13404;SDS011;6773;51.192;7.024;2022-08-21T11:10:40;5.10;;;2.25;;
13404;SDS011;6773;51.192;7.024;2022-08-21T11:13:54;3.50;;;1.70;;
13404;SDS011;6773;51.192;7.024;2022-08-21T11:18:55;5.47;;;1.95;;
13404;SDS011;6773;51.192;7.024;2022-08-21T11:21:37;3.90;;;1.90;;
13404;SDS011;6773;51.192;7.024;2022-08-21T11:27:01;5.43;;;1.90;;
13404;SDS011;6773;51.192;7.024;2022-08-21T11:29:38;6.05;;;1.88;;
13404;SDS011;6773;51.192;7.024;2022-08-21T11:32:29;4.05;;;2.00;;
13404;SDS011;6773;51.192;7.024;2022-08-21T11:35:24;3.78;;;1.90;;
13404;SDS011;6773;51.192;7.024;2022-08-21T11:43:55;4.68;;;1.83;;
13404;SDS011;6773;51.192;7.024;2022-08-21T11:51:40;3.97;;;1.77;;
13404;SDS011;6773;51.192;7.024;2022-08-21T11:56:53;4.97;;;1.80;;
13404;SDS011;6773;51.192;7.024;2022-08-21T11:59:32;5.10;;;1.85;;
13404;SDS011;6773;51.192;7.024;2022-08-21T12:02:12;4.20;;;1.67;;
13404;SDS011;6773;51.192;7.024;2022-08-21T12:04:51;3.25;;;1.55;;
13404;SDS011;6773;51.192;7.024;2022-08-21T12:07:38;4.38;;;2.08;;
13404;SDS011;6773;51.192;7.024;2022-08-21T12:10:08;3.35;;;1.52;;
13404;SDS011;6773;51.192;7.024;2022-08-21T12:12:38;4.38;;;1.88;;
13404;SDS011;6773;51.192;7.024;2022-08-21T12:17:41;6.45;;;1.92;;
13404;SDS011;6773;51.192;7.024;2022-08-21T12:22:54;4.55;;;1.63;;
13404;SDS011;6773;51.192;7.024;2022-08-21T12:25:40;4.15;;;1.80;;
13404;SDS011;6773;51.192;7.024;2022-08-21T12:28:25;5.18;;;1.88;;
13404;SDS011;6773;51.192;7.024;2022-08-21T12:30:53;4.63;;;1.80;;
13404;SDS011;6773;51.192;7.024;2022-08-21T12:36:03;3.78;;;1.80;;
13404;SDS011;6773;51.192;7.024;2022-08-21T12:38:44;3.70;;;1.90;;
13404;SDS011;6773;51.192;7.024;2022-08-21T12:41:26;5.00;;;1.80;;
13404;SDS011;6773;51.192;7.024;2022-08-21T12:44:03;3.80;;;1.95;;
13404;SDS011;6773;51.192;7.024;2022-08-21T12:46:37;3.63;;;1.67;;
13404;SDS011;6773;51.192;7.024;2022-08-21T12:49:56;3.38;;;1.65;;
13404;SDS011;6773;51.192;7.024;2022-08-21T12:52:19;3.03;;;1.42;;
13404;SDS011;6773;51.192;7.024;2022-08-21T12:54:47;4.35;;;2.00;;
13404;SDS011;6773;51.192;7.024;2022-08-21T12:57:23;3.88;;;1.60;;
13404;SDS011;6773;51.192;7.024;2022-08-21T12:59:54;4.78;;;1.42;;
13404;SDS011;6773;51.192;7.024;2022-08-21T13:02:26;2.85;;;1.65;;
13404;SDS011;6773;51.192;7.024;2022-08-21T13:04:56;3.75;;;1.67;;
13404;SDS011;6773;51.192;7.024;2022-08-21T13:07:29;2.72;;;1.50;;
13404;SDS011;6773;51.192;7.024;2022-08-21T13:10:03;2.83;;;1.45;;
13404;SDS011;6773;51.192;7.024;2022-08-21T13:12:41;3.70;;;1.50;;
13404;SDS011;6773;51.192;7.024;2022-08-21T13:15:07;4.40;;;1.83;;
13404;SDS011;6773;51.192;7.024;2022-08-21T13:17:35;3.20;;;1.63;;
13404;SDS011;6773;51.192;7.024;2022-08-21T13:20:05;4.20;;;1.50;;
13404;SDS011;6773;51.192;7.024;2022-08-21T13:22:40;3.35;;;1.58;;
13404;SDS011;6773;51.192;7.024;2022-08-21T13:25:10;2.38;;;1.30;;
13404;SDS011;6773;51.192;7.024;2022-08-21T13:27:37;4.32;;;2.08;;
13404;SDS011;6773;51.192;7.024;2022-08-21T13:30:05;3.40;;;1.60;;
13404;SDS011;6773;51.192;7.024;2022-08-21T13:32:39;4.85;;;1.80;;
13404;SDS011;6773;51.192;7.024;2022-08-21T13:35:17;4.55;;;1.63;;
13404;SDS011;6773;51.192;7.024;2022-08-21T13:37:48;5.00;;;1.80;;
13404;SDS011;6773;51.192;7.024;2022-08-21T13:40:18;4.10;;;1.92;;
13404;SDS011;6773;51.192;7.024;2022-08-21T13:42:48;5.93;;;1.70;;
13404;SDS011;6773;51.192;7.024;2022-08-21T13:45:21;3.85;;;1.60;;
13404;SDS011;6773;51.192;7.024;2022-08-21T13:47:49;2.92;;;1.60;;
13404;SDS011;6773;51.192;7.024;2022-08-21T13:50:16;3.70;;;1.52;;
13404;SDS011;6773;51.192;7.024;2022-08-21T13:52:55;2.10;;;1.38;;
13404;SDS011;6773;51.192;7.024;2022-08-21T13:55:23;6.22;;;1.48;;
13404;SDS011;6773;51.192;7.024;2022-08-21T13:58:00;4.22;;;1.70;;
13404;SDS011;6773;51.192;7.024;2022-08-21T14:00:28;3.25;;;1.63;;
13404;SDS011;6773;51.192;7.024;2022-08-21T14:02:59;3.00;;;1.60;;
13404;SDS011;6773;51.192;7.024;2022-08-21T14:05:43;5.55;;;1.50;;
13404;SDS011;6773;51.192;7.024;2022-08-21T14:08:12;3.08;;;1.60;;
13404;SDS011;6773;51.192;7.024;2022-08-21T14:10:41;3.58;;;1.42;;
13404;SDS011;6773;51.192;7.024;2022-08-21T14:13:29;3.42;;;1.45;;
13404;SDS011;6773;51.192;7.024;2022-08-21T14:15:59;3.55;;;1.63;;
13404;SDS011;6773;51.192;7.024;2022-08-21T14:18:26;2.65;;;1.38;;
13404;SDS011;6773;51.192;7.024;2022-08-21T14:21:05;2.60;;;1.40;;
13404;SDS011;6773;51.192;7.024;2022-08-21T14:23:33;2.97;;;1.48;;
13404;SDS011;6773;51.192;7.024;2022-08-21T14:25:59;3.85;;;1.60;;
13404;SDS011;6773;51.192;7.024;2022-08-21T14:28:32;3.53;;;1.70;;
13404;SDS011;6773;51.192;7.024;2022-08-21T14:31:16;2.45;;;1.45;;
13404;SDS011;6773;51.192;7.024;2022-08-21T14:33:43;3.53;;;1.58;;
13404;SDS011;6773;51.192;7.024;2022-08-21T14:36:09;1.95;;;1.35;;
13404;SDS011;6773;51.192;7.024;2022-08-21T14:38:36;3.78;;;1.40;;
13404;SDS011;6773;51.192;7.024;2022-08-21T14:41:08;2.83;;;1.30;;
13404;SDS011;6773;51.192;7.024;2022-08-21T14:43:43;3.47;;;1.45;;
13404;SDS011;6773;51.192;7.024;2022-08-21T14:46:10;3.45;;;1.33;;
13404;SDS011;6773;51.192;7.024;2022-08-21T14:48:44;3.25;;;1.38;;
13404;SDS011;6773;51.192;7.024;2022-08-21T14:51:09;2.42;;;1.40;;
13404;SDS011;6773;51.192;7.024;2022-08-21T14:53:35;3.08;;;1.33;;
13404;SDS011;6773;51.192;7.024;2022-08-21T14:56:00;2.30;;;1.33;;
13404;SDS011;6773;51.192;7.024;2022-08-21T14:58:33;3.25;;;1.45;;
13404;SDS011;6773;51.192;7.024;2022-08-21T15:01:02;3.45;;;1.38;;
13404;SDS011;6773;51.192;7.024;2022-08-21T15:03:30;1.55;;;1.33;;
13404;SDS011;6773;51.192;7.024;2022-08-21T15:05:56;2.70;;;1.33;;
13404;SDS011;6773;51.192;7.024;2022-08-21T15:08:22;3.17;;;1.45;;
13404;SDS011;6773;51.192;7.024;2022-08-21T15:10:48;3.20;;;1.45;;
13404;SDS011;6773;51.192;7.024;2022-08-21T15:13:14;2.05;;;1.45;;
13404;SDS011;6773;51.192;7.024;2022-08-21T15:15:41;3.80;;;1.25;;
13404;SDS011;6773;51.192;7.024;2022-08-21T15:18:08;2.55;;;1.40;;
13404;SDS011;6773;51.192;7.024;2022-08-21T15:20:36;4.18;;;1.40;;
13404;SDS011;6773;51.192;7.024;2022-08-21T15:23:03;2.03;;;1.30;;
13404;SDS011;6773;51.192;7.024;2022-08-21T15:25:30;3.45;;;1.80;;
13404;SDS011;6773;51.192;7.024;2022-08-21T15:27:56;3.13;;;1.35;;
13404;SDS011;6773;51.192;7.024;2022-08-21T15:30:23;1.40;;;1.30;;
13404;SDS011;6773;51.192;7.024;2022-08-21T15:32:48;2.72;;;1.30;;
13404;SDS011;6773;51.192;7.024;2022-08-21T15:35:14;2.65;;;1.58;;
13404;SDS011;6773;51.192;7.024;2022-08-21T15:37:39;3.70;;;1.50;;
13404;SDS011;6773;51.192;7.024;2022-08-21T15:40:05;2.83;;;1.60;;
13404;SDS011;6773;51.192;7.024;2022-08-21T15:42:32;4.03;;;1.60;;
13404;SDS011;6773;51.192;7.024;2022-08-21T15:44:58;2.40;;;1.45;;
13404;SDS011;6773;51.192;7.024;2022-08-21T15:47:28;2.90;;;1.38;;
13404;SDS011;6773;51.192;7.024;2022-08-21T15:49:56;3.15;;;1.40;;
13404;SDS011;6773;51.192;7.024;2022-08-21T15:52:21;1.92;;;1.40;;
13404;SDS011;6773;51.192;7.024;2022-08-21T15:54:48;3.35;;;1.55;;
13404;SDS011;6773;51.192;7.024;2022-08-21T15:57:15;3.78;;;1.70;;
13404;SDS011;6773;51.192;7.024;2022-08-21T15:59:46;2.03;;;1.40;;
13404;SDS011;6773;51.192;7.024;2022-08-21T16:02:17;1.80;;;1.38;;
13404;SDS011;6773;51.192;7.024;2022-08-21T16:04:46;3.50;;;1.27;;
13404;SDS011;6773;51.192;7.024;2022-08-21T16:07:12;2.67;;;1.45;;
13404;SDS011;6773;51.192;7.024;2022-08-21T16:09:37;2.75;;;1.50;;
13404;SDS011;6773;51.192;7.024;2022-08-21T16:12:04;3.80;;;1.67;;
13404;SDS011;6773;51.192;7.024;2022-08-21T16:14:30;3.33;;;1.50;;
13404;SDS011;6773;51.192;7.024;2022-08-21T16:16:59;2.22;;;1.40;;
13404;SDS011;6773;51.192;7.024;2022-08-21T16:19:25;3.88;;;1.50;;
13404;SDS011;6773;51.192;7.024;2022-08-21T16:21:52;2.20;;;1.38;;
13404;SDS011;6773;51.192;7.024;2022-08-21T16:24:18;2.55;;;1.40;;
13404;SDS011;6773;51.192;7.024;2022-08-21T16:26:43;2.25;;;1.38;;
13404;SDS011;6773;51.192;7.024;2022-08-21T16:29:09;3.10;;;1.95;;